sensor_id;sensor_type;location;lat;lon;timestamp;pressure;altitude;pressure_sealevel;temperature;humidity
60417;BME280;46263;44.726;10.396;2023-07-29T00:00:17;100210.63;;;27.52;53.92
60417;BME280;46263;44.726;10.396;2023-07-29T00:02:44;100212.28;;;27.57;53.01
60417;BME280;46263;44.726;10.396;2023-07-29T00:05:09;100207.84;;;27.54;53.08
60417;BME280;46263;44.726;10.396;2023-07-29T00:07:35;100210.22;;;27.44;54.30
60417;BME280;46263;44.726;10.396;2023-07-29T00:10:00;100208.91;;;27.47;53.96
60417;BME280;46263;44.726;10.396;2023-07-29T00:12:26;100206.34;;;27.53;53.81
60417;BME280;46263;44.726;10.396;2023-07-29T00:14:51;100202.63;;;27.50;53.38
60417;BME280;46263;44.726;10.396;2023-07-29T00:17:17;100199.84;;;27.52;53.87
60417;BME280;46263;44.726;10.396;2023-07-29T00:19:42;100203.50;;;27.53;53.42
60417;BME280;46263;44.726;10.396;2023-07-29T00:22:07;100195.41;;;27.49;53.59
60417;BME280;46263;44.726;10.396;2023-07-29T00:24:33;100199.13;;;27.52;53.49
60417;BME280;46263;44.726;10.396;2023-07-29T00:26:59;100200.97;;;27.45;53.25
60417;BME280;46263;44.726;10.396;2023-07-29T00:29:24;100201.91;;;27.50;53.39
60417;BME280;46263;44.726;10.396;2023-07-29T00:31:50;100199.69;;;27.48;53.27
60417;BME280;46263;44.726;10.396;2023-07-29T00:34:15;100196.69;;;27.46;53.32
60417;BME280;46263;44.726;10.396;2023-07-29T00:36:45;100199.75;;;27.35;53.48
60417;BME280;46263;44.726;10.396;2023-07-29T00:39:10;100200.84;;;27.28;53.64
60417;BME280;46263;44.726;10.396;2023-07-29T00:41:36;100199.34;;;27.27;53.79
60417;BME280;46263;44.726;10.396;2023-07-29T00:44:01;100200.84;;;27.28;53.96
60417;BME280;46263;44.726;10.396;2023-07-29T00:46:28;100200.19;;;27.30;53.87
60417;BME280;46263;44.726;10.396;2023-07-29T00:48:55;100200.00;;;27.26;54.01
60417;BME280;46263;44.726;10.396;2023-07-29T00:51:20;100191.47;;;27.28;53.87
60417;BME280;46263;44.726;10.396;2023-07-29T00:53:46;100191.63;;;27.16;54.06
60417;BME280;46263;44.726;10.396;2023-07-29T00:56:12;100198.97;;;27.19;54.30
60417;BME280;46263;44.726;10.396;2023-07-29T00:58:38;100195.25;;;27.17;54.55
60417;BME280;46263;44.726;10.396;2023-07-29T01:01:03;100198.31;;;27.21;54.06
60417;BME280;46263;44.726;10.396;2023-07-29T01:03:28;100203.09;;;27.16;54.72
60417;BME280;46263;44.726;10.396;2023-07-29T01:06:23;100203.00;;;27.14;54.56
60417;BME280;46263;44.726;10.396;2023-07-29T01:09:07;100206.53;;;27.13;54.68
60417;BME280;46263;44.726;10.396;2023-07-29T01:11:52;100200.88;;;27.15;54.44
60417;BME280;46263;44.726;10.396;2023-07-29T01:16:53;100212.91;;;27.11;54.98
60417;BME280;46263;44.726;10.396;2023-07-29T01:21:58;100212.72;;;27.07;55.00
60417;BME280;46263;44.726;10.396;2023-07-29T01:24:23;100211.97;;;27.07;55.14
60417;BME280;46263;44.726;10.396;2023-07-29T01:26:49;100221.25;;;27.05;55.25
60417;BME280;46263;44.726;10.396;2023-07-29T01:29:14;100210.78;;;26.98;55.29
60417;BME280;46263;44.726;10.396;2023-07-29T01:31:43;100213.78;;;27.00;55.28
60417;BME280;46263;44.726;10.396;2023-07-29T01:34:15;100211.34;;;26.95;56.07
60417;BME280;46263;44.726;10.396;2023-07-29T01:36:43;100207.72;;;26.94;55.76
60417;BME280;46263;44.726;10.396;2023-07-29T01:39:11;100205.69;;;26.97;55.90
60417;BME280;46263;44.726;10.396;2023-07-29T01:41:37;100210.78;;;26.98;55.85
60417;BME280;46263;44.726;10.396;2023-07-29T01:44:04;100204.22;;;26.96;55.76
60417;BME280;46263;44.726;10.396;2023-07-29T01:46:33;100203.28;;;26.91;55.54
60417;BME280;46263;44.726;10.396;2023-07-29T01:48:58;100203.19;;;26.89;55.41
60417;BME280;46263;44.726;10.396;2023-07-29T01:51:24;100196.69;;;26.89;55.73
60417;BME280;46263;44.726;10.396;2023-07-29T01:53:49;100194.88;;;26.95;55.41
60417;BME280;46263;44.726;10.396;2023-07-29T01:56:15;100192.63;;;26.94;55.59
60417;BME280;46263;44.726;10.396;2023-07-29T01:58:40;100191.91;;;26.93;55.62
60417;BME280;46263;44.726;10.396;2023-07-29T02:01:05;100191.78;;;26.91;55.79
60417;BME280;46263;44.726;10.396;2023-07-29T02:03:31;100189.56;;;26.90;55.55
60417;BME280;46263;44.726;10.396;2023-07-29T02:05:56;100192.63;;;26.94;55.56
60417;BME280;46263;44.726;10.396;2023-07-29T02:08:21;100196.91;;;26.93;55.87
60417;BME280;46263;44.726;10.396;2023-07-29T02:10:47;100209.22;;;26.95;56.68
60417;BME280;46263;44.726;10.396;2023-07-29T02:13:14;100204.09;;;26.94;56.78
60417;BME280;46263;44.726;10.396;2023-07-29T02:15:39;100210.38;;;26.90;56.71
60417;BME280;46263;44.726;10.396;2023-07-29T02:18:05;100220.19;;;26.85;57.39
60417;BME280;46263;44.726;10.396;2023-07-29T02:20:31;100219.53;;;26.87;56.91
60417;BME280;46263;44.726;10.396;2023-07-29T02:22:57;100211.69;;;26.87;56.19
60417;BME280;46263;44.726;10.396;2023-07-29T02:25:22;100223.16;;;26.87;56.86
60417;BME280;46263;44.726;10.396;2023-07-29T02:27:47;100220.19;;;26.85;56.34
60417;BME280;46263;44.726;10.396;2023-07-29T02:30:13;100218.16;;;26.88;56.41
60417;BME280;46263;44.726;10.396;2023-07-29T02:32:38;100220.41;;;26.89;56.41
60417;BME280;46263;44.726;10.396;2023-07-29T02:35:04;100221.78;;;26.88;56.23
60417;BME280;46263;44.726;10.396;2023-07-29T02:37:30;100222.34;;;26.85;56.28
60417;BME280;46263;44.726;10.396;2023-07-29T02:39:55;100231.66;;;26.85;56.36
60417;BME280;46263;44.726;10.396;2023-07-29T02:42:21;100235.91;;;26.84;56.26
60417;BME280;46263;44.726;10.396;2023-07-29T02:44:46;100235.91;;;26.84;56.52
60417;BME280;46263;44.726;10.396;2023-07-29T02:47:12;100222.94;;;26.83;56.99
60417;BME280;46263;44.726;10.396;2023-07-29T02:49:37;100226.25;;;26.78;57.47
60417;BME280;46263;44.726;10.396;2023-07-29T02:52:03;100222.94;;;26.83;56.52
60417;BME280;46263;44.726;10.396;2023-07-29T02:54:28;100224.78;;;26.77;56.68
60417;BME280;46263;44.726;10.396;2023-07-29T02:56:54;100221.28;;;26.78;57.37
60417;BME280;46263;44.726;10.396;2023-07-29T02:59:19;100221.69;;;26.86;57.62
60417;BME280;46263;44.726;10.396;2023-07-29T03:01:45;100223.91;;;26.88;57.94
60417;BME280;46263;44.726;10.396;2023-07-29T03:04:10;100224.88;;;26.79;57.85
60417;BME280;46263;44.726;10.396;2023-07-29T03:06:38;100230.94;;;26.85;58.14
60417;BME280;46263;44.726;10.396;2023-07-29T03:09:03;100226.47;;;26.82;58.11
60417;BME280;46263;44.726;10.396;2023-07-29T03:11:30;100234.25;;;26.79;58.29
60417;BME280;46263;44.726;10.396;2023-07-29T03:13:56;100233.81;;;26.85;57.58
60417;BME280;46263;44.726;10.396;2023-07-29T03:16:22;100222.34;;;26.85;57.83
60417;BME280;46263;44.726;10.396;2023-07-29T03:18:48;100226.66;;;26.86;58.14
60417;BME280;46263;44.726;10.396;2023-07-29T03:21:14;100224.84;;;26.92;58.33
60417;BME280;46263;44.726;10.396;2023-07-29T03:23:40;100232.06;;;26.93;58.46
60417;BME280;46263;44.726;10.396;2023-07-29T03:26:05;100240.78;;;26.95;58.15
60417;BME280;46263;44.726;10.396;2023-07-29T03:28:36;100239.63;;;27.00;57.38
60417;BME280;46263;44.726;10.396;2023-07-29T03:31:02;100246.84;;;27.01;57.93
60417;BME280;46263;44.726;10.396;2023-07-29T03:33:28;100249.72;;;27.01;57.50
60417;BME280;46263;44.726;10.396;2023-07-29T03:35:54;100244.72;;;27.02;57.30
60417;BME280;46263;44.726;10.396;2023-07-29T03:38:20;100236.63;;;26.98;57.59
60417;BME280;46263;44.726;10.396;2023-07-29T03:40:46;100232.28;;;26.97;58.02
60417;BME280;46263;44.726;10.396;2023-07-29T03:43:11;100227.28;;;26.98;57.63
60417;BME280;46263;44.726;10.396;2023-07-29T03:45:37;100230.81;;;26.96;58.01
60417;BME280;46263;44.726;10.396;2023-07-29T03:48:04;100230.88;;;26.98;58.24
60417;BME280;46263;44.726;10.396;2023-07-29T03:50:30;100232.28;;;26.97;58.21
60417;BME280;46263;44.726;10.396;2023-07-29T03:52:56;100236.69;;;26.85;58.67
60417;BME280;46263;44.726;10.396;2023-07-29T03:55:22;100223.91;;;26.88;58.90
60417;BME280;46263;44.726;10.396;2023-07-29T03:57:47;100217.75;;;26.80;59.69
60417;BME280;46263;44.726;10.396;2023-07-29T04:00:13;100218.19;;;26.74;60.11
60417;BME280;46263;44.726;10.396;2023-07-29T04:02:38;100223.38;;;26.78;59.65
60417;BME280;46263;44.726;10.396;2023-07-29T04:05:05;100234.03;;;26.75;59.34
60417;BME280;46263;44.726;10.396;2023-07-29T04:07:32;100232.88;;;26.67;59.59
60417;BME280;46263;44.726;10.396;2023-07-29T04:09:58;100248.28;;;26.73;58.76
60417;BME280;46263;44.726;10.396;2023-07-29T04:12:24;100262.81;;;26.64;58.77
60417;BME280;46263;44.726;10.396;2023-07-29T04:14:49;100266.53;;;26.66;58.25
60417;BME280;46263;44.726;10.396;2023-07-29T04:17:15;100258.81;;;26.69;58.56
60417;BME280;46263;44.726;10.396;2023-07-29T04:19:40;100258.16;;;26.70;58.59
60417;BME280;46263;44.726;10.396;2023-07-29T04:22:06;100269.31;;;26.64;57.90
60417;BME280;46263;44.726;10.396;2023-07-29T04:24:31;100260.50;;;26.61;58.45
60417;BME280;46263;44.726;10.396;2023-07-29T04:26:57;100250.22;;;26.56;58.38
60417;BME280;46263;44.726;10.396;2023-07-29T04:29:22;100259.66;;;26.58;58.08
60417;BME280;46263;44.726;10.396;2023-07-29T04:31:49;100264.44;;;26.54;58.64
60417;BME280;46263;44.726;10.396;2023-07-29T04:34:14;100271.34;;;26.49;59.12
60417;BME280;46263;44.726;10.396;2023-07-29T04:36:40;100269.75;;;26.46;59.10
60417;BME280;46263;44.726;10.396;2023-07-29T04:39:05;100265.63;;;26.49;58.74
60417;BME280;46263;44.726;10.396;2023-07-29T04:41:31;100271.97;;;26.47;58.50
60417;BME280;46263;44.726;10.396;2023-07-29T04:43:56;100266.22;;;26.47;58.58
60417;BME280;46263;44.726;10.396;2023-07-29T04:46:22;100275.47;;;26.46;58.51
60417;BME280;46263;44.726;10.396;2023-07-29T04:48:47;100281.00;;;26.42;58.57
60417;BME280;46263;44.726;10.396;2023-07-29T04:51:12;100271.31;;;26.35;58.60
60417;BME280;46263;44.726;10.396;2023-07-29T04:53:38;100275.16;;;26.40;58.76
60417;BME280;46263;44.726;10.396;2023-07-29T04:56:04;100271.53;;;26.39;58.69
60417;BME280;46263;44.726;10.396;2023-07-29T04:58:29;100273.03;;;26.40;59.06
60417;BME280;46263;44.726;10.396;2023-07-29T05:00:55;100293.75;;;26.39;59.10
60417;BME280;46263;44.726;10.396;2023-07-29T05:03:21;100293.75;;;26.39;59.00
60417;BME280;46263;44.726;10.396;2023-07-29T05:05:46;100305.47;;;26.31;59.54
60417;BME280;46263;44.726;10.396;2023-07-29T05:08:12;100296.81;;;26.43;59.37
60417;BME280;46263;44.726;10.396;2023-07-29T05:10:37;100282.47;;;26.43;59.66
60417;BME280;46263;44.726;10.396;2023-07-29T05:13:03;100280.50;;;26.45;59.98
60417;BME280;46263;44.726;10.396;2023-07-29T05:15:28;100283.13;;;26.55;60.33
60417;BME280;46263;44.726;10.396;2023-07-29T05:17:53;100278.78;;;26.54;61.29
60417;BME280;46263;44.726;10.396;2023-07-29T05:20:19;100287.38;;;26.54;60.40
60417;BME280;46263;44.726;10.396;2023-07-29T05:22:44;100286.53;;;26.64;59.96
60417;BME280;46263;44.726;10.396;2023-07-29T05:25:10;100289.50;;;26.66;60.20
60417;BME280;46263;44.726;10.396;2023-07-29T05:27:35;100294.06;;;26.71;60.57
60417;BME280;46263;44.726;10.396;2023-07-29T05:30:01;100305.66;;;26.73;60.36
60417;BME280;46263;44.726;10.396;2023-07-29T05:32:26;100297.78;;;26.74;60.36
60417;BME280;46263;44.726;10.396;2023-07-29T05:34:51;100304.38;;;26.76;60.46
60417;BME280;46263;44.726;10.396;2023-07-29T05:37:17;100310.41;;;26.82;60.43
60417;BME280;46263;44.726;10.396;2023-07-29T05:39:42;100309.25;;;26.87;60.18
60417;BME280;46263;44.726;10.396;2023-07-29T05:42:07;100312.44;;;26.93;60.24
60417;BME280;46263;44.726;10.396;2023-07-29T05:44:33;100309.66;;;26.95;60.72
60417;BME280;46263;44.726;10.396;2023-07-29T05:46:58;100318.47;;;26.99;61.26
60417;BME280;46263;44.726;10.396;2023-07-29T05:49:24;100316.25;;;26.98;62.10
60417;BME280;46263;44.726;10.396;2023-07-29T05:51:49;100321.47;;;27.01;61.53
60417;BME280;46263;44.726;10.396;2023-07-29T05:54:20;100315.84;;;27.03;61.63
60417;BME280;46263;44.726;10.396;2023-07-29T05:56:45;100317.34;;;27.04;61.95
60417;BME280;46263;44.726;10.396;2023-07-29T05:59:11;100306.59;;;27.05;61.75
60417;BME280;46263;44.726;10.396;2023-07-29T06:01:36;100317.00;;;27.12;61.44
60417;BME280;46263;44.726;10.396;2023-07-29T06:04:01;100327.22;;;27.15;61.57
60417;BME280;46263;44.726;10.396;2023-07-29T06:06:27;100328.06;;;27.17;61.62
60417;BME280;46263;44.726;10.396;2023-07-29T06:08:53;100319.97;;;27.27;61.78
60417;BME280;46263;44.726;10.396;2023-07-29T06:11:18;100314.94;;;27.28;62.15
60417;BME280;46263;44.726;10.396;2023-07-29T06:13:44;100319.53;;;27.33;61.71
60417;BME280;46263;44.726;10.396;2023-07-29T06:16:09;100317.41;;;27.20;61.76
60417;BME280;46263;44.726;10.396;2023-07-29T06:18:34;100320.59;;;27.26;61.94
60417;BME280;46263;44.726;10.396;2023-07-29T06:21:00;100319.84;;;27.25;61.39
60417;BME280;46263;44.726;10.396;2023-07-29T06:23:25;100311.19;;;27.39;61.15
60417;BME280;46263;44.726;10.396;2023-07-29T06:25:51;100304.38;;;27.45;61.06
60417;BME280;46263;44.726;10.396;2023-07-29T06:28:16;100310.22;;;27.47;60.82
60417;BME280;46263;44.726;10.396;2023-07-29T06:30:41;100308.06;;;27.48;60.88
60417;BME280;46263;44.726;10.396;2023-07-29T06:33:07;100308.47;;;27.56;60.74
60417;BME280;46263;44.726;10.396;2023-07-29T06:35:32;100308.16;;;27.63;60.27
60417;BME280;46263;44.726;10.396;2023-07-29T06:37:58;100315.81;;;27.59;59.14
60417;BME280;46263;44.726;10.396;2023-07-29T06:40:23;100314.63;;;27.64;59.45
60417;BME280;46263;44.726;10.396;2023-07-29T06:42:48;100322.09;;;27.69;59.78
60417;BME280;46263;44.726;10.396;2023-07-29T06:45:14;100312.81;;;27.70;59.66
60417;BME280;46263;44.726;10.396;2023-07-29T06:47:40;100322.47;;;27.77;59.79
60417;BME280;46263;44.726;10.396;2023-07-29T06:50:06;100320.06;;;27.87;59.29
60417;BME280;46263;44.726;10.396;2023-07-29T06:52:32;100325.47;;;27.94;58.99
60417;BME280;46263;44.726;10.396;2023-07-29T06:54:57;100324.19;;;27.97;59.71
60417;BME280;46263;44.726;10.396;2023-07-29T06:57:23;100327.78;;;27.98;59.37
60417;BME280;46263;44.726;10.396;2023-07-29T06:59:48;100316.84;;;27.94;59.51
60417;BME280;46263;44.726;10.396;2023-07-29T07:02:14;100317.13;;;28.00;60.06
60417;BME280;46263;44.726;10.396;2023-07-29T07:04:39;100311.69;;;28.06;59.19
60417;BME280;46263;44.726;10.396;2023-07-29T07:07:05;100313.63;;;28.17;58.72
60417;BME280;46263;44.726;10.396;2023-07-29T07:09:30;100310.50;;;28.27;58.62
60417;BME280;46263;44.726;10.396;2023-07-29T07:11:55;100310.50;;;28.27;59.70
60417;BME280;46263;44.726;10.396;2023-07-29T07:14:21;100317.94;;;28.31;59.34
60417;BME280;46263;44.726;10.396;2023-07-29T07:16:46;100321.63;;;28.34;59.05
60417;BME280;46263;44.726;10.396;2023-07-29T07:19:12;100317.72;;;28.27;58.46
60417;BME280;46263;44.726;10.396;2023-07-29T07:21:37;100319.59;;;28.36;58.68
60417;BME280;46263;44.726;10.396;2023-07-29T07:24:03;100317.94;;;28.31;58.50
60417;BME280;46263;44.726;10.396;2023-07-29T07:26:28;100317.38;;;28.35;57.82
60417;BME280;46263;44.726;10.396;2023-07-29T07:28:54;100311.16;;;28.40;58.31
60417;BME280;46263;44.726;10.396;2023-07-29T07:31:19;100315.22;;;28.51;58.15
60417;BME280;46263;44.726;10.396;2023-07-29T07:33:44;100307.06;;;28.61;57.88
60417;BME280;46263;44.726;10.396;2023-07-29T07:36:10;100303.72;;;28.66;57.59
60417;BME280;46263;44.726;10.396;2023-07-29T07:38:35;100306.41;;;28.62;57.46
60417;BME280;46263;44.726;10.396;2023-07-29T07:41:01;100307.97;;;28.65;57.38
60417;BME280;46263;44.726;10.396;2023-07-29T07:43:27;100313.28;;;28.71;57.67
60417;BME280;46263;44.726;10.396;2023-07-29T07:46:03;100315.66;;;28.76;57.38
60417;BME280;46263;44.726;10.396;2023-07-29T07:48:28;100321.78;;;28.84;57.72
60417;BME280;46263;44.726;10.396;2023-07-29T07:50:54;100320.41;;;28.85;57.61
60417;BME280;46263;44.726;10.396;2023-07-29T07:53:20;100323.38;;;28.87;57.67
60417;BME280;46263;44.726;10.396;2023-07-29T07:55:45;100316.78;;;28.85;57.52
60417;BME280;46263;44.726;10.396;2023-07-29T07:58:11;100320.13;;;28.79;57.85
60417;BME280;46263;44.726;10.396;2023-07-29T08:00:37;100315.97;;;28.82;57.44
60417;BME280;46263;44.726;10.396;2023-07-29T08:03:02;100327.38;;;28.80;56.99
60417;BME280;46263;44.726;10.396;2023-07-29T08:05:28;100330.53;;;28.86;57.24
60417;BME280;46263;44.726;10.396;2023-07-29T08:07:54;100317.53;;;28.85;56.78
60417;BME280;46263;44.726;10.396;2023-07-29T08:10:19;100322.06;;;28.90;56.67
60417;BME280;46263;44.726;10.396;2023-07-29T08:12:45;100322.25;;;28.94;56.93
60417;BME280;46263;44.726;10.396;2023-07-29T08:15:10;100310.16;;;28.98;56.44
60417;BME280;46263;44.726;10.396;2023-07-29T08:17:36;100318.97;;;29.02;56.29
60417;BME280;46263;44.726;10.396;2023-07-29T08:20:01;100311.72;;;29.01;56.03
60417;BME280;46263;44.726;10.396;2023-07-29T08:22:27;100306.72;;;29.01;56.24
60417;BME280;46263;44.726;10.396;2023-07-29T08:24:52;100305.56;;;29.08;55.78
60417;BME280;46263;44.726;10.396;2023-07-29T08:27:17;100310.03;;;29.11;55.74
60417;BME280;46263;44.726;10.396;2023-07-29T08:29:43;100307.25;;;29.13;55.63
60417;BME280;46263;44.726;10.396;2023-07-29T08:32:08;100308.63;;;29.12;55.91
60417;BME280;46263;44.726;10.396;2023-07-29T08:34:34;100297.44;;;29.20;56.30
60417;BME280;46263;44.726;10.396;2023-07-29T08:36:59;100300.56;;;29.26;55.53
60417;BME280;46263;44.726;10.396;2023-07-29T08:39:25;100297.44;;;29.20;55.01
60417;BME280;46263;44.726;10.396;2023-07-29T08:42:11;100294.72;;;29.24;54.89
60417;BME280;46263;44.726;10.396;2023-07-29T08:44:41;100294.09;;;29.25;54.86
60417;BME280;46263;44.726;10.396;2023-07-29T08:47:07;100297.97;;;29.32;55.14
60417;BME280;46263;44.726;10.396;2023-07-29T08:49:33;100296.56;;;29.33;55.77
60417;BME280;46263;44.726;10.396;2023-07-29T08:51:59;100286.81;;;29.40;56.48
60417;BME280;46263;44.726;10.396;2023-07-29T08:54:25;100289.50;;;29.36;56.25
60417;BME280;46263;44.726;10.396;2023-07-29T08:56:50;100288.94;;;29.39;55.93
60417;BME280;46263;44.726;10.396;2023-07-29T08:59:16;100284.91;;;29.46;57.33
60417;BME280;46263;44.726;10.396;2023-07-29T09:01:42;100283.69;;;29.51;57.22
60417;BME280;46263;44.726;10.396;2023-07-29T09:04:08;100283.69;;;29.51;56.35
60417;BME280;46263;44.726;10.396;2023-07-29T09:06:35;100292.00;;;29.61;56.33
60417;BME280;46263;44.726;10.396;2023-07-29T09:09:01;100292.22;;;29.67;55.91
60417;BME280;46263;44.726;10.396;2023-07-29T09:11:27;100296.59;;;29.68;56.45
60417;BME280;46263;44.726;10.396;2023-07-29T09:13:52;100281.50;;;29.69;55.60
60417;BME280;46263;44.726;10.396;2023-07-29T09:16:19;100286.69;;;29.73;55.62
60417;BME280;46263;44.726;10.396;2023-07-29T09:18:48;100288.25;;;29.76;55.93
60417;BME280;46263;44.726;10.396;2023-07-29T09:21:16;100287.59;;;29.77;55.93
60417;BME280;46263;44.726;10.396;2023-07-29T09:23:43;100290.16;;;29.87;56.55
60417;BME280;46263;44.726;10.396;2023-07-29T09:26:09;100280.84;;;29.88;55.85
60417;BME280;46263;44.726;10.396;2023-07-29T09:28:37;100288.81;;;29.90;54.51
60417;BME280;46263;44.726;10.396;2023-07-29T09:31:03;100277.13;;;29.86;53.45
60417;BME280;46263;44.726;10.396;2023-07-29T09:33:32;100274.16;;;29.84;53.41
60417;BME280;46263;44.726;10.396;2023-07-29T09:36:00;100272.47;;;29.77;53.73
60417;BME280;46263;44.726;10.396;2023-07-29T09:38:27;100281.84;;;29.77;53.31
60417;BME280;46263;44.726;10.396;2023-07-29T09:40:57;100278.00;;;29.71;52.76
60417;BME280;46263;44.726;10.396;2023-07-29T09:43:29;100278.31;;;29.79;53.27
60417;BME280;46263;44.726;10.396;2023-07-29T09:46:00;100283.34;;;29.96;54.35
60417;BME280;46263;44.726;10.396;2023-07-29T09:48:26;100286.53;;;30.03;53.76
60417;BME280;46263;44.726;10.396;2023-07-29T09:50:51;100285.19;;;30.06;53.94
60417;BME280;46263;44.726;10.396;2023-07-29T09:53:17;100283.88;;;30.09;53.10
60417;BME280;46263;44.726;10.396;2023-07-29T09:55:48;100279.09;;;30.16;53.11
60417;BME280;46263;44.726;10.396;2023-07-29T09:58:21;100272.84;;;30.04;52.33
60417;BME280;46263;44.726;10.396;2023-07-29T10:00:51;100280.75;;;30.03;52.13
60417;BME280;46263;44.726;10.396;2023-07-29T10:03:17;100275.06;;;30.05;51.52
60417;BME280;46263;44.726;10.396;2023-07-29T10:05:44;100268.94;;;30.15;51.43
60417;BME280;46263;44.726;10.396;2023-07-29T10:08:10;100262.38;;;30.12;51.86
60417;BME280;46263;44.726;10.396;2023-07-29T10:10:36;100262.72;;;30.22;51.83
60417;BME280;46263;44.726;10.396;2023-07-29T10:13:02;100259.91;;;30.24;51.70
60417;BME280;46263;44.726;10.396;2023-07-29T10:15:29;100268.78;;;30.30;51.50
60417;BME280;46263;44.726;10.396;2023-07-29T10:17:57;100263.47;;;30.42;51.28
60417;BME280;46263;44.726;10.396;2023-07-29T10:20:23;100260.84;;;30.48;51.75
60417;BME280;46263;44.726;10.396;2023-07-29T10:22:48;100261.06;;;30.54;51.82
60417;BME280;46263;44.726;10.396;2023-07-29T10:25:16;100256.47;;;30.47;51.67
60417;BME280;46263;44.726;10.396;2023-07-29T10:27:54;100258.41;;;30.60;52.84
60417;BME280;46263;44.726;10.396;2023-07-29T10:30:21;100250.16;;;30.72;52.28
60417;BME280;46263;44.726;10.396;2023-07-29T10:32:48;100254.75;;;30.79;51.43
60417;BME280;46263;44.726;10.396;2023-07-29T10:35:15;100249.03;;;30.81;51.27
60417;BME280;46263;44.726;10.396;2023-07-29T10:37:41;100244.75;;;30.82;51.78
60417;BME280;46263;44.726;10.396;2023-07-29T10:40:09;100250.88;;;30.92;52.57
60417;BME280;46263;44.726;10.396;2023-07-29T10:42:35;100242.41;;;30.98;51.45
60417;BME280;46263;44.726;10.396;2023-07-29T10:45:17;100238.22;;;31.01;51.77
60417;BME280;46263;44.726;10.396;2023-07-29T10:47:43;100242.03;;;31.07;51.06
60417;BME280;46263;44.726;10.396;2023-07-29T10:50:21;100244.53;;;31.17;51.58
60417;BME280;46263;44.726;10.396;2023-07-29T10:52:52;100234.66;;;31.24;51.76
60417;BME280;46263;44.726;10.396;2023-07-29T10:55:32;100230.47;;;31.29;51.46
60417;BME280;46263;44.726;10.396;2023-07-29T10:58:24;100234.16;;;31.31;51.28
60417;BME280;46263;44.726;10.396;2023-07-29T11:00:49;100229.34;;;31.38;51.00
60417;BME280;46263;44.726;10.396;2023-07-29T11:03:15;100235.13;;;31.38;51.42
60417;BME280;46263;44.726;10.396;2023-07-29T11:05:51;100230.66;;;31.35;49.71
60417;BME280;46263;44.726;10.396;2023-07-29T11:10:43;100223.09;;;31.24;48.43
60417;BME280;46263;44.726;10.396;2023-07-29T11:13:11;100223.91;;;31.26;48.43
60417;BME280;46263;44.726;10.396;2023-07-29T11:15:38;100225.91;;;31.22;48.35
60417;BME280;46263;44.726;10.396;2023-07-29T11:18:05;100227.06;;;31.13;48.53
60417;BME280;46263;44.726;10.396;2023-07-29T11:20:34;100214.56;;;31.06;49.39
60417;BME280;46263;44.726;10.396;2023-07-29T11:23:02;100219.06;;;31.11;49.56
60417;BME280;46263;44.726;10.396;2023-07-29T11:25:29;100210.66;;;31.19;49.27
60417;BME280;46263;44.726;10.396;2023-07-29T11:27:57;100213.13;;;31.29;48.85
60417;BME280;46263;44.726;10.396;2023-07-29T11:30:23;100208.97;;;31.34;49.05
60417;BME280;46263;44.726;10.396;2023-07-29T11:32:53;100191.91;;;31.42;49.52
60417;BME280;46263;44.726;10.396;2023-07-29T11:35:19;100195.59;;;31.44;49.59
60417;BME280;46263;44.726;10.396;2023-07-29T11:37:46;100194.19;;;31.45;49.19
60417;BME280;46263;44.726;10.396;2023-07-29T11:40:16;100192.72;;;31.46;49.26
60417;BME280;46263;44.726;10.396;2023-07-29T11:42:42;100192.47;;;31.38;48.62
60417;BME280;46263;44.726;10.396;2023-07-29T11:45:08;100185.25;;;31.37;48.01
60417;BME280;46263;44.726;10.396;2023-07-29T11:47:35;100184.03;;;31.44;49.60
60417;BME280;46263;44.726;10.396;2023-07-29T11:50:05;100189.84;;;31.46;49.72
60417;BME280;46263;44.726;10.396;2023-07-29T11:52:33;100180.19;;;31.38;48.08
60417;BME280;46263;44.726;10.396;2023-07-29T11:55:00;100190.63;;;31.25;48.67
60417;BME280;46263;44.726;10.396;2023-07-29T11:57:26;100184.91;;;31.27;48.31
60417;BME280;46263;44.726;10.396;2023-07-29T11:59:52;100181.88;;;31.23;48.59
60417;BME280;46263;44.726;10.396;2023-07-29T12:02:19;100173.44;;;31.29;48.84
60417;BME280;46263;44.726;10.396;2023-07-29T12:04:47;100177.38;;;31.40;49.18
60417;BME280;46263;44.726;10.396;2023-07-29T12:07:14;100181.16;;;31.46;49.87
60417;BME280;46263;44.726;10.396;2023-07-29T12:09:40;100173.44;;;31.53;49.00
60417;BME280;46263;44.726;10.396;2023-07-29T12:12:07;100171.22;;;31.51;48.27
60417;BME280;46263;44.726;10.396;2023-07-29T12:14:33;100166.78;;;31.48;49.10
60417;BME280;46263;44.726;10.396;2023-07-29T12:17:01;100162.38;;;31.45;49.84
60417;BME280;46263;44.726;10.396;2023-07-29T12:19:37;100160.91;;;31.44;49.07
60417;BME280;46263;44.726;10.396;2023-07-29T12:22:07;100148.78;;;31.50;48.64
60417;BME280;46263;44.726;10.396;2023-07-29T12:24:35;100153.28;;;31.55;49.05
60417;BME280;46263;44.726;10.396;2023-07-29T12:27:01;100157.72;;;31.58;50.26
60417;BME280;46263;44.726;10.396;2023-07-29T12:29:27;100146.91;;;31.58;49.06
60417;BME280;46263;44.726;10.396;2023-07-29T12:32:03;100145.56;;;31.61;49.46
60417;BME280;46263;44.726;10.396;2023-07-29T12:34:30;100141.84;;;31.59;48.43
60417;BME280;46263;44.726;10.396;2023-07-29T12:36:58;100136.06;;;31.59;48.34
60417;BME280;46263;44.726;10.396;2023-07-29T12:39:28;100131.19;;;31.65;49.23
60417;BME280;46263;44.726;10.396;2023-07-29T12:41:58;100132.75;;;31.68;49.29
60417;BME280;46263;44.726;10.396;2023-07-29T12:44:26;100124.97;;;31.74;49.41